Time;durP1;ratioP1;P1;durP2;ratioP2;P2;SDS_P1;SDS_P2;PMS_P1;PMS_P2;Temp;Humidity;BMP_temperature;BMP_pressure;BME280_temperature;BME280_humidity;BME280_pressure;Samples;Min_cycle;Max_cycle;Signal;HPM_P1;HPM_P2
2021/10/31 07:01:41;;;;;;;12.07;1.80;;;12.50;99.90;;;;;;5281730;23;20052;-91
2021/10/31 07:04:09;;;;;;;10.73;1.45;;;12.50;99.90;;;;;;4906476;29;20053;-96
2021/10/31 07:06:36;;;;;;;9.07;1.70;;;12.50;99.90;;;;;;4900937;29;20115;-93
2021/10/31 07:09:05;;;;;;;16.10;2.35;;;12.50;99.90;;;;;;4898886;29;20049;-96
2021/10/31 07:11:31;;;;;;;17.58;2.50;;;12.50;99.90;;;;;;4900797;29;20045;-95
2021/10/31 07:13:59;;;;;;;20.27;2.67;;;12.50;99.90;;;;;;4900553;29;20056;-93
2021/10/31 07:16:26;;;;;;;18.10;2.30;;;12.50;99.90;;;;;;4908542;29;20174;-89
2021/10/31 07:18:53;;;;;;;17.08;2.63;;;12.50;99.90;;;;;;4909672;29;20048;-92
2021/10/31 07:21:20;;;;;;;15.85;2.85;;;12.50;99.90;;;;;;4897945;29;20112;-89
2021/10/31 07:23:47;;;;;;;18.52;2.85;;;12.60;99.90;;;;;;4913070;29;20060;-94
2021/10/31 07:26:14;;;;;;;18.20;2.40;;;12.70;99.90;;;;;;4902043;29;20084;-94
2021/10/31 07:28:41;;;;;;;23.02;3.38;;;12.70;99.90;;;;;;4900052;29;20104;-91
2021/10/31 07:31:10;;;;;;;24.35;3.15;;;12.70;99.90;;;;;;4902425;29;20048;-93
2021/10/31 07:33:37;;;;;;;23.15;3.60;;;12.80;99.90;;;;;;4901300;29;20048;-92
2021/10/31 07:36:04;;;;;;;24.20;3.72;;;12.80;99.90;;;;;;4896095;29;20049;-87
2021/10/31 07:38:33;;;;;;;21.00;3.20;;;12.80;99.90;;;;;;4903923;29;20075;-94
2021/10/31 07:41:00;;;;;;;;;;;12.70;99.90;;;;;;4902075;29;20041;-92
2021/10/31 07:45:07;;;;;;;20.83;3.42;;;12.70;99.90;;;;;;5027358;28;20363;-88
2021/10/31 07:47:34;;;;;;;22.77;2.85;;;12.60;99.90;;;;;;5024367;28;20059;-91
2021/10/31 07:50:01;;;;;;;16.23;2.60;;;12.50;99.90;;;;;;5024487;28;20060;-91
2021/10/31 07:52:28;;;;;;;15.05;2.60;;;12.40;99.90;;;;;;5021222;28;20045;-90
2021/10/31 07:54:56;;;;;;;20.50;2.78;;;12.40;99.90;;;;;;5039296;28;20504;-94
2021/10/31 07:57:25;;;;;;;14.02;2.30;;;12.40;99.90;;;;;;5061044;28;20052;-89
2021/10/31 07:59:52;;;;;;;;;;;12.40;99.90;;;;;;5048212;28;20049;-95
2021/10/31 08:02:19;;;;;;;18.35;3.33;;;12.30;99.90;;;;;;5041781;28;19928;-91
2021/10/31 08:04:46;;;;;;;18.27;2.58;;;12.30;99.90;;;;;;5042425;28;20613;-89
2021/10/31 08:07:13;;;;;;;21.70;3.25;;;12.30;99.90;;;;;;5039366;28;20045;-91
2021/10/31 08:09:40;;;;;;;25.13;3.08;;;12.30;99.90;;;;;;5040176;28;20103;-89
2021/10/31 08:12:10;;;;;;;18.98;3.72;;;12.40;99.90;;;;;;5008409;28;20057;-91
2021/10/31 08:14:37;;;;;;;15.50;2.38;;;12.40;99.90;;;;;;5015631;28;20052;-91
2021/10/31 08:17:04;;;;;;;20.13;2.95;;;12.40;99.90;;;;;;5023197;28;20057;-89
2021/10/31 08:19:31;;;;;;;27.45;4.30;;;12.50;99.90;;;;;;5022786;28;20045;-94
2021/10/31 08:21:58;;;;;;;25.08;3.33;;;12.50;99.90;;;;;;5021958;28;20072;-91
2021/10/31 08:24:26;;;;;;;19.45;3.55;;;12.60;99.90;;;;;;5027359;28;20053;-88
2021/10/31 08:26:54;;;;;;;23.25;3.67;;;12.60;99.90;;;;;;5024364;28;20053;-93
2021/10/31 08:29:23;;;;;;;24.58;4.53;;;12.70;99.90;;;;;;5025417;28;20524;-92
2021/10/31 08:31:54;;;;;;;24.15;4.05;;;12.80;99.90;;;;;;5027220;28;20119;-90
2021/10/31 08:34:22;;;;;;;27.92;3.55;;;12.90;99.90;;;;;;5021411;28;20051;-92
2021/10/31 08:36:49;;;;;;;26.20;3.40;;;13.00;99.90;;;;;;5025494;28;20054;-91
2021/10/31 08:39:16;;;;;;;20.13;4.10;;;13.00;99.90;;;;;;5036970;28;20052;-92
2021/10/31 08:41:43;;;;;;;34.40;5.05;;;13.10;99.90;;;;;;5026938;28;20049;-95
2021/10/31 08:44:11;;;;;;;25.58;3.97;;;13.20;99.90;;;;;;5038892;28;20051;-93
2021/10/31 08:46:39;;;;;;;24.25;3.35;;;13.30;99.90;;;;;;5041102;28;20052;-94
2021/10/31 08:49:07;;;;;;;20.38;3.67;;;13.30;99.90;;;;;;5047916;28;20804;-94
2021/10/31 08:51:35;;;;;;;25.95;3.15;;;13.40;99.90;;;;;;5031211;28;20525;-93
2021/10/31 08:54:02;;;;;;;21.52;3.25;;;13.50;99.90;;;;;;5041766;28;20060;-94
2021/10/31 08:56:36;;;;;;;20.23;3.65;;;13.60;99.90;;;;;;5012651;28;20072;-89
2021/10/31 08:59:03;;;;;;;19.85;3.03;;;13.60;99.90;;;;;;5034792;28;20049;-95
2021/10/31 09:01:31;;;;;;;24.30;3.63;;;13.70;99.90;;;;;;5032404;28;20053;-92
2021/10/31 09:03:59;;;;;;;17.02;2.42;;;13.70;99.90;;;;;;5016231;28;20053;-92
2021/10/31 09:06:27;;;;;;;21.38;3.30;;;13.70;99.90;;;;;;5015275;28;20042;-92
2021/10/31 09:08:55;;;;;;;21.57;3.40;;;13.70;99.90;;;;;;5019774;28;20484;-92
2021/10/31 09:11:23;;;;;;;24.40;2.92;;;13.70;99.90;;;;;;5014360;28;20473;-92
2021/10/31 09:14:09;;;;;;;19.20;2.80;;;13.70;99.90;;;;;;5017288;28;20427;-92
2021/10/31 09:16:36;;;;;;;11.70;3.13;;;13.70;99.90;;;;;;5012398;28;20046;-92
2021/10/31 09:19:03;;;;;;;22.65;3.85;;;13.80;99.90;;;;;;5033683;28;20617;-93
2021/10/31 09:21:30;;;;;;;24.40;3.53;;;13.80;99.90;;;;;;5013958;28;20049;-90
2021/10/31 09:23:58;;;;;;;15.75;3.22;;;13.90;99.90;;;;;;5032037;28;20046;-96
2021/10/31 09:26:25;;;;;;;18.92;3.38;;;14.00;99.90;;;;;;5014679;28;20045;-94
2021/10/31 09:28:52;;;;;;;19.77;3.20;;;14.10;99.90;;;;;;5013971;28;20046;-93
2021/10/31 09:31:19;;;;;;;16.73;2.60;;;14.00;99.90;;;;;;5012703;28;20041;-94
2021/10/31 09:33:47;;;;;;;17.90;3.30;;;14.00;99.90;;;;;;5026721;28;20041;-93
2021/10/31 09:36:14;;;;;;;20.50;3.20;;;14.00;99.90;;;;;;5030622;28;20056;-94
2021/10/31 09:38:41;;;;;;;14.60;2.80;;;14.10;99.90;;;;;;5014608;28;20063;-93
2021/10/31 09:41:12;;;;;;;18.25;3.28;;;14.10;99.90;;;;;;5029953;28;20157;-92
2021/10/31 09:43:51;;;;;;;18.48;2.80;;;14.10;99.90;;;;;;5011987;28;20034;-90
2021/10/31 09:46:19;;;;;;;15.70;2.65;;;14.20;99.90;;;;;;5014118;28;20073;-93
2021/10/31 09:48:46;;;;;;;11.77;2.17;;;14.20;99.90;;;;;;5015934;28;20056;-91
2021/10/31 09:51:13;;;;;;;14.88;2.75;;;14.20;99.90;;;;;;5031919;28;20054;-94
2021/10/31 09:53:45;;;;;;;11.48;2.22;;;14.20;99.90;;;;;;5032647;28;20045;-94
2021/10/31 09:56:16;;;;;;;9.48;2.25;;;14.30;99.90;;;;;;5031404;28;20488;-94
2021/10/31 09:58:44;;;;;;;14.63;2.20;;;14.20;99.90;;;;;;5017408;28;20462;-92
2021/10/31 10:01:51;;;;;;;17.27;2.58;;;14.20;99.90;;;;;;5029695;28;20042;-94
2021/10/31 10:04:27;;;;;;;18.17;3.00;;;14.20;99.90;;;;;;5030687;28;20049;-93
2021/10/31 10:06:56;;;;;;;20.23;2.70;;;14.30;99.90;;;;;;5013382;28;20045;-94
2021/10/31 10:09:24;;;;;;;15.23;2.42;;;14.30;99.90;;;;;;5015859;28;20751;-93
2021/10/31 10:11:53;;;;;;;14.88;2.35;;;14.30;99.90;;;;;;5013128;28;20057;-92
2021/10/31 10:14:30;;;;;;;14.02;2.38;;;14.30;99.90;;;;;;5013816;28;20060;-93
2021/10/31 10:17:00;;;;;;;15.57;3.05;;;14.30;99.90;;;;;;5025358;28;20050;-92
2021/10/31 10:19:42;;;;;;;14.75;2.58;;;14.30;99.90;;;;;;5024474;28;20053;-92
2021/10/31 10:22:12;;;;;;;20.42;2.83;;;14.30;99.90;;;;;;5012843;28;20045;-90
2021/10/31 10:24:59;;;;;;;21.27;3.65;;;14.10;99.90;;;;;;5032634;28;20414;-91
2021/10/31 10:27:34;;;;;;;20.17;2.50;;;14.10;99.90;;;;;;4999629;28;20073;-96
2021/10/31 10:30:15;;;;;;;12.02;2.33;;;14.10;99.90;;;;;;5029763;28;20054;-93
2021/10/31 10:32:57;;;;;;;14.52;2.80;;;14.10;99.90;;;;;;5011169;28;20053;-94
2021/10/31 10:35:27;;;;;;;13.32;2.33;;;14.20;99.90;;;;;;5013229;28;20053;-93
2021/10/31 10:37:57;;;;;;;11.55;2.22;;;14.20;99.90;;;;;;5032135;28;20050;-92
2021/10/31 10:40:27;;;;;;;13.55;2.40;;;14.20;99.90;;;;;;5012559;28;20045;-92
2021/10/31 10:46:11;;;;;;;14.07;2.63;;;14.20;99.90;;;;;;5027998;28;20049;-94
2021/10/31 10:48:56;;;;;;;9.77;1.90;;;14.20;99.90;;;;;;5031821;28;20043;-94
2021/10/31 10:51:27;;;;;;;13.70;2.70;;;14.30;99.90;;;;;;5028563;28;20049;-93
2021/10/31 10:54:11;;;;;;;11.60;2.50;;;14.30;99.90;;;;;;5034227;28;20117;-92
2021/10/31 10:57:02;;;;;;;13.27;2.53;;;14.30;99.90;;;;;;5010286;28;20791;-91
2021/10/31 10:59:31;;;;;;;12.27;3.00;;;14.40;99.90;;;;;;5005349;28;20045;-94
2021/10/31 11:02:11;;;;;;;15.63;1.95;;;14.40;99.90;;;;;;5013158;28;20053;-93
2021/10/31 11:04:40;;;;;;;14.68;2.17;;;14.40;99.90;;;;;;5016406;28;20045;-91
2021/10/31 11:07:08;;;;;;;;;;;14.40;99.90;;;;;;5027251;28;20481;-91
2021/10/31 11:09:46;;;;;;;18.92;2.75;;;14.40;99.90;;;;;;5031975;28;19928;-89
2021/10/31 11:12:32;;;;;;;19.35;2.65;;;14.50;99.90;;;;;;5012889;28;20041;-91
2021/10/31 11:15:27;;;;;;;18.55;2.70;;;14.50;99.90;;;;;;5030730;28;20053;-91
2021/10/31 11:18:02;;;;;;;13.40;2.55;;;14.50;99.90;;;;;;4981467;28;20056;-91
2021/10/31 11:20:32;;;;;;;22.42;2.50;;;14.50;99.90;;;;;;5008408;28;20073;-93
2021/10/31 11:23:03;;;;;;;14.23;2.50;;;14.50;99.90;;;;;;5025907;28;20505;-91
2021/10/31 11:25:32;;;;;;;13.98;2.53;;;14.40;99.90;;;;;;5026687;28;20052;-89
2021/10/31 11:28:01;;;;;;;15.18;2.67;;;14.40;99.90;;;;;;5011707;28;20046;-91
2021/10/31 11:30:30;;;;;;;19.20;3.22;;;14.50;99.90;;;;;;5011225;28;20041;-91
2021/10/31 11:32:59;;;;;;;16.15;2.90;;;14.50;99.90;;;;;;5014684;28;20506;-93
2021/10/31 11:35:28;;;;;;;15.15;2.55;;;14.50;99.90;;;;;;5013239;28;20048;-93
2021/10/31 11:38:05;;;;;;;17.02;2.38;;;14.50;99.90;;;;;;5026646;28;20053;-91
2021/10/31 11:40:37;;;;;;;15.48;2.63;;;14.60;99.90;;;;;;5028774;28;20088;-92
2021/10/31 11:43:19;;;;;;;18.75;3.25;;;14.50;99.90;;;;;;5027369;28;20053;-91
2021/10/31 11:45:48;;;;;;;13.20;2.15;;;14.50;99.90;;;;;;5015038;28;20048;-88
2021/10/31 11:48:22;;;;;;;11.93;2.25;;;14.60;99.90;;;;;;5028790;28;20081;-91
2021/10/31 11:51:02;;;;;;;14.55;2.67;;;14.60;99.90;;;;;;5011581;28;20050;-90
2021/10/31 11:54:02;;;;;;;12.88;2.65;;;14.80;99.90;;;;;;5028452;28;20049;-88
2021/10/31 11:56:31;;;;;;;17.20;2.85;;;14.80;99.90;;;;;;5025730;28;20056;-93
2021/10/31 11:59:14;;;;;;;13.95;2.30;;;14.90;99.90;;;;;;5031087;28;20061;-91
2021/10/31 12:01:43;;;;;;;15.00;2.67;;;14.80;99.90;;;;;;5028306;28;20045;-90
2021/10/31 12:07:48;;;;;;;18.27;2.85;;;14.80;99.90;;;;;;4981321;28;20601;-90
2021/10/31 12:10:35;;;;;;;12.48;2.63;;;14.80;99.90;;;;;;4967927;28;20058;-89
2021/10/31 12:13:19;;;;;;;14.75;2.10;;;14.70;99.90;;;;;;4967071;28;20050;-89
2021/10/31 12:16:04;;;;;;;14.25;2.13;;;14.80;99.90;;;;;;4977949;28;20054;-89
2021/10/31 12:18:46;;;;;;;17.42;2.60;;;14.90;99.90;;;;;;4969274;28;20153;-88
2021/10/31 12:21:26;;;;;;;18.85;2.83;;;14.90;99.90;;;;;;4981614;28;20047;-91
2021/10/31 12:24:06;;;;;;;13.80;2.40;;;14.90;99.90;;;;;;4967630;28;20459;-90
2021/10/31 12:26:48;;;;;;;14.15;2.63;;;14.90;99.90;;;;;;4980064;28;20058;-92
2021/10/31 12:29:20;;;;;;;15.55;3.00;;;14.90;99.90;;;;;;4977614;28;20093;-90
2021/10/31 12:32:00;;;;;;;13.98;2.97;;;14.90;99.90;;;;;;4986252;28;20324;-90
2021/10/31 12:34:37;;;;;;;18.23;2.60;;;15.00;99.90;;;;;;4978534;28;20051;-87
2021/10/31 12:37:22;;;;;;;15.35;2.88;;;15.10;99.90;;;;;;4983627;28;20050;-90
2021/10/31 12:39:53;;;;;;;19.25;3.67;;;15.30;99.90;;;;;;4982848;28;20070;-89
2021/10/31 12:42:37;;;;;;;14.88;2.63;;;15.30;99.90;;;;;;4985371;28;20506;-90
2021/10/31 12:45:17;;;;;;;16.77;3.17;;;15.40;99.90;;;;;;5012430;28;20148;-91
2021/10/31 12:47:56;;;;;;;17.67;2.83;;;15.50;99.90;;;;;;5012888;28;20049;-89
2021/10/31 12:50:32;;;;;;;15.57;2.85;;;15.50;99.90;;;;;;5034349;28;20513;-92
2021/10/31 12:53:09;;;;;;;21.75;3.03;;;15.50;99.90;;;;;;5022132;28;20054;-92
2021/10/31 12:55:39;;;;;;;19.80;3.10;;;15.40;99.90;;;;;;5008885;28;20521;-91
2021/10/31 12:58:14;;;;;;;19.92;3.53;;;15.30;99.90;;;;;;4989819;28;20540;-90
2021/10/31 13:00:51;;;;;;;17.85;2.80;;;15.20;99.90;;;;;;5013716;28;20049;-91
2021/10/31 13:03:20;;;;;;;17.75;2.95;;;15.20;99.90;;;;;;5028016;28;20588;-92
2021/10/31 13:05:52;;;;;;;16.70;3.22;;;15.30;99.90;;;;;;5029606;28;20115;-90
2021/10/31 13:08:20;;;;;;;17.13;3.58;;;15.30;99.90;;;;;;5026251;28;20442;-91
2021/10/31 13:10:53;;;;;;;16.08;2.70;;;15.40;99.90;;;;;;5022877;28;20053;-91
2021/10/31 13:13:26;;;;;;;13.07;2.95;;;15.40;99.90;;;;;;4982830;28;20043;-88
2021/10/31 13:15:56;;;;;;;20.92;3.53;;;15.20;99.90;;;;;;5009443;28;20054;-90
2021/10/31 13:18:29;;;;;;;17.23;2.97;;;15.20;99.90;;;;;;5026502;28;20135;-84
2021/10/31 13:21:08;;;;;;;13.40;3.47;;;15.10;99.90;;;;;;5029112;28;20046;-90
2021/10/31 13:23:38;;;;;;;22.77;3.50;;;15.10;99.90;;;;;;4997857;28;20045;-82
2021/10/31 13:26:09;;;;;;;17.25;2.75;;;15.00;99.90;;;;;;5025436;28;20045;-82
2021/10/31 13:28:37;;;;;;;21.30;4.30;;;15.00;99.90;;;;;;5007639;28;20077;-83
2021/10/31 13:31:20;;;;;;;17.90;3.85;;;15.00;99.90;;;;;;5023607;28;20409;-83
2021/10/31 13:33:53;;;;;;;18.23;3.70;;;15.10;99.90;;;;;;5025409;28;20064;-82
2021/10/31 13:36:24;;;;;;;16.60;2.97;;;15.10;99.90;;;;;;4991802;28;20050;-82
2021/10/31 13:39:09;;;;;;;17.70;4.50;;;15.10;99.90;;;;;;5009149;28;20387;-83
2021/10/31 13:41:37;;;;;;;18.05;3.50;;;15.10;99.90;;;;;;5024122;28;20585;-82
2021/10/31 13:44:13;;;;;;;23.98;5.22;;;15.10;99.90;;;;;;5028987;28;20515;-83
2021/10/31 13:46:49;;;;;;;34.20;8.15;;;15.10;99.90;;;;;;5024763;28;20053;-82
2021/10/31 13:49:17;;;;;;;25.38;5.40;;;15.00;99.90;;;;;;5012399;28;20045;-82
2021/10/31 13:51:47;;;;;;;24.23;3.50;;;15.00;99.90;;;;;;5025770;28;20465;-83
2021/10/31 13:54:16;;;;;;;17.27;3.05;;;14.90;99.90;;;;;;5027375;28;20056;-83
2021/10/31 13:56:46;;;;;;;20.83;4.13;;;14.90;99.90;;;;;;5026019;28;20919;-82
2021/10/31 13:59:15;;;;;;;11.80;2.40;;;14.90;99.90;;;;;;5028165;28;20046;-82
2021/10/31 14:01:46;;;;;;;11.85;3.05;;;14.90;99.90;;;;;;5005565;28;20049;-81
2021/10/31 14:04:15;;;;;;;13.68;2.78;;;14.90;99.90;;;;;;5019293;28;20111;-82
2021/10/31 14:06:43;;;;;;;16.17;2.83;;;14.80;99.90;;;;;;5027065;28;20045;-82
2021/10/31 14:09:12;;;;;;;18.40;2.85;;;14.80;99.90;;;;;;5024807;28;20076;-81
2021/10/31 14:11:51;;;;;;;;;;;14.80;99.90;;;;;;5025017;28;20049;-82
2021/10/31 14:14:53;;;;;;;18.95;3.45;;;14.90;99.90;;;;;;5024661;28;19925;-81
2021/10/31 14:17:25;;;;;;;19.15;3.40;;;15.00;99.90;;;;;;4921269;29;20477;-82
2021/10/31 14:19:55;;;;;;;18.90;3.42;;;15.10;99.90;;;;;;4937653;28;20053;-82
2021/10/31 14:22:24;;;;;;;19.02;3.17;;;15.00;99.90;;;;;;4946922;28;20059;-81
2021/10/31 14:25:10;;;;;;;14.18;3.20;;;15.00;99.90;;;;;;4942894;28;20102;-80
2021/10/31 14:27:39;;;;;;;15.70;3.60;;;14.90;99.90;;;;;;4954662;28;20098;-82
2021/10/31 14:30:19;;;;;;;18.80;2.50;;;14.80;99.90;;;;;;4952376;28;20523;-81
2021/10/31 14:33:12;;;;;;;17.27;2.72;;;14.80;99.90;;;;;;4948019;28;20109;-81
2021/10/31 14:35:50;;;;;;;12.35;1.90;;;14.80;99.90;;;;;;4941490;28;20150;-82
2021/10/31 14:38:24;;;;;;;13.57;2.60;;;14.80;99.90;;;;;;4943930;28;20043;-82
2021/10/31 14:41:15;;;;;;;12.68;2.20;;;14.80;99.90;;;;;;4944109;28;20166;-81
2021/10/31 14:43:56;;;;;;;13.93;2.35;;;14.80;99.90;;;;;;4941296;29;20050;-81
2021/10/31 14:46:39;;;;;;;14.73;2.00;;;14.70;99.90;;;;;;4943019;28;21726;-82
2021/10/31 14:49:11;;;;;;;14.23;2.30;;;14.70;99.90;;;;;;4944090;28;20142;-81
2021/10/31 14:51:48;;;;;;;16.85;2.65;;;14.70;99.90;;;;;;4951348;28;20066;-82
2021/10/31 14:54:26;;;;;;;13.27;2.60;;;14.70;99.90;;;;;;4982306;28;20056;-81
2021/10/31 14:57:09;;;;;;;11.45;2.28;;;14.70;99.90;;;;;;5022116;28;20052;-82
2021/10/31 14:59:55;;;;;;;10.13;1.70;;;14.70;99.90;;;;;;5022521;28;20049;-83
2021/10/31 15:02:41;;;;;;;10.18;1.60;;;14.60;99.90;;;;;;5027530;28;20128;-83
2021/10/31 15:05:10;;;;;;;12.32;2.00;;;14.60;99.90;;;;;;5024935;28;20050;-82
2021/10/31 15:07:38;;;;;;;11.45;1.83;;;14.50;99.90;;;;;;5027353;28;20054;-81
2021/10/31 15:10:10;;;;;;;10.65;1.60;;;14.50;99.90;;;;;;5020833;28;20192;-82
2021/10/31 15:12:37;;;;;;;12.57;1.80;;;14.40;99.90;;;;;;5005294;28;20042;-81
2021/10/31 15:15:06;;;;;;;17.45;2.15;;;14.40;99.90;;;;;;5020758;28;20061;-82
2021/10/31 15:17:37;;;;;;;8.13;1.67;;;14.40;99.90;;;;;;5006621;28;20551;-83
2021/10/31 15:20:06;;;;;;;6.25;1.50;;;14.30;99.90;;;;;;5021831;28;20045;-83
2021/10/31 15:22:33;;;;;;;9.30;1.70;;;14.30;99.90;;;;;;5006357;28;20490;-83
2021/10/31 15:25:00;;;;;;;10.40;1.70;;;14.20;99.90;;;;;;5022755;28;20095;-82
2021/10/31 15:27:27;;;;;;;7.70;1.42;;;14.20;99.90;;;;;;5004534;28;20073;-82
2021/10/31 15:29:58;;;;;;;11.65;1.60;;;14.10;99.90;;;;;;5021099;28;20107;-82
2021/10/31 15:32:26;;;;;;;11.65;2.10;;;14.10;99.90;;;;;;5022352;28;20065;-82
2021/10/31 15:34:53;;;;;;;10.27;1.52;;;14.10;99.90;;;;;;5019165;28;20108;-82
2021/10/31 15:37:21;;;;;;;13.65;2.05;;;14.10;99.90;;;;;;5021787;28;20123;-81
2021/10/31 15:39:48;;;;;;;9.70;2.10;;;14.10;99.90;;;;;;5020866;28;20506;-82
2021/10/31 15:42:15;;;;;;;12.25;1.92;;;14.10;99.90;;;;;;5023534;28;20049;-82
2021/10/31 15:44:42;;;;;;;13.13;2.45;;;14.00;99.90;;;;;;5011499;28;20056;-82
2021/10/31 15:47:09;;;;;;;12.00;2.15;;;14.00;99.90;;;;;;5006596;28;20082;-82
2021/10/31 15:49:36;;;;;;;17.70;2.40;;;14.00;99.90;;;;;;5006266;28;20049;-81
2021/10/31 15:52:04;;;;;;;16.85;2.55;;;14.00;99.90;;;;;;5021958;28;20119;-82
2021/10/31 15:54:31;;;;;;;10.57;1.83;;;14.00;99.90;;;;;;5006053;28;20064;-80
2021/10/31 15:56:58;;;;;;;12.65;2.30;;;14.00;99.90;;;;;;5010990;28;20132;-82
2021/10/31 15:59:27;;;;;;;13.95;2.17;;;13.90;99.90;;;;;;5016684;28;20054;-81
2021/10/31 16:01:57;;;;;;;13.88;1.98;;;13.90;99.90;;;;;;5020982;28;20107;-81
2021/10/31 16:04:27;;;;;;;17.98;2.90;;;13.80;99.90;;;;;;5025199;28;20060;-80
2021/10/31 16:06:54;;;;;;;14.20;2.40;;;13.80;99.90;;;;;;5015082;28;20111;-81
2021/10/31 16:09:25;;;;;;;19.00;2.90;;;13.80;99.90;;;;;;5024452;28;20596;-81
2021/10/31 16:11:52;;;;;;;18.90;3.00;;;13.70;99.90;;;;;;5027556;28;20092;-80
2021/10/31 16:14:24;;;;;;;16.00;2.40;;;13.80;99.90;;;;;;5025397;28;20061;-80
2021/10/31 16:16:51;;;;;;;15.60;2.92;;;13.80;99.90;;;;;;5024268;28;20042;-80
2021/10/31 16:19:18;;;;;;;13.25;2.72;;;13.90;99.90;;;;;;5010857;28;20123;-81
2021/10/31 16:21:45;;;;;;;16.67;2.42;;;13.90;99.90;;;;;;5028357;28;20104;-82
2021/10/31 16:24:13;;;;;;;17.88;2.40;;;13.80;99.90;;;;;;5008144;28;20084;-80
2021/10/31 16:26:41;;;;;;;15.05;2.60;;;13.80;99.90;;;;;;5026732;28;20049;-78
2021/10/31 16:29:08;;;;;;;15.38;2.90;;;13.70;99.90;;;;;;5030440;28;20084;-80
2021/10/31 16:31:38;;;;;;;18.60;2.80;;;13.70;99.90;;;;;;5009656;28;20111;-82
2021/10/31 16:34:05;;;;;;;13.98;2.58;;;13.60;99.90;;;;;;5006833;28;20072;-78
2021/10/31 16:36:33;;;;;;;11.05;1.77;;;13.50;99.90;;;;;;5026866;28;20073;-80
2021/10/31 16:39:02;;;;;;;13.05;2.25;;;13.40;99.90;;;;;;5019627;28;20095;-81
2021/10/31 16:41:34;;;;;;;5.68;1.55;;;13.20;99.90;;;;;;5015347;28;20049;-81
2021/10/31 16:44:03;;;;;;;9.70;1.63;;;13.10;99.90;;;;;;5024161;28;20509;-80
2021/10/31 16:46:30;;;;;;;6.55;1.73;;;12.90;99.90;;;;;;5023304;28;20104;-78
2021/10/31 16:48:57;;;;;;;5.50;1.10;;;12.80;99.90;;;;;;5008206;28;20089;-81
2021/10/31 16:51:29;;;;;;;5.95;1.52;;;12.70;99.90;;;;;;5022988;28;20050;-79
2021/10/31 16:53:57;;;;;;;7.28;1.75;;;12.50;99.90;;;;;;5026723;28;20151;-80
2021/10/31 16:56:28;;;;;;;10.23;5.38;;;12.40;99.90;;;;;;5026444;28;20584;-80
2021/10/31 16:58:55;;;;;;;13.90;8.20;;;12.30;99.90;;;;;;5026661;28;20130;-81
2021/10/31 17:01:22;;;;;;;9.13;1.50;;;12.30;99.90;;;;;;5021494;28;20050;-79
2021/10/31 17:03:51;;;;;;;8.50;3.00;;;12.20;99.90;;;;;;5025748;28;20057;-85
2021/10/31 17:06:24;;;;;;;8.35;1.65;;;12.10;99.90;;;;;;5024585;28;20116;-83
2021/10/31 17:08:54;;;;;;;6.60;1.70;;;12.10;99.90;;;;;;5004600;28;20053;-83
2021/10/31 17:11:22;;;;;;;8.85;2.45;;;12.00;99.90;;;;;;5019950;28;20054;-80
2021/10/31 17:13:55;;;;;;;9.85;2.92;;;12.00;99.90;;;;;;5028136;28;20137;-80
2021/10/31 17:16:30;;;;;;;11.90;2.13;;;11.90;99.90;;;;;;5022482;28;20072;-79
2021/10/31 17:18:58;;;;;;;17.92;4.35;;;11.90;99.90;;;;;;5022153;28;20050;-80
2021/10/31 17:21:24;;;;;;;15.82;4.00;;;11.90;99.90;;;;;;5014525;28;20049;-80
2021/10/31 17:23:51;;;;;;;591.40;451.85;;;11.90;99.90;;;;;;5023589;28;20076;-79
2021/10/31 17:26:18;;;;;;;61.45;37.08;;;11.80;99.90;;;;;;5024113;28;20147;-80
2021/10/31 17:28:46;;;;;;;18.88;7.20;;;11.80;99.90;;;;;;5008113;28;20095;-80
2021/10/31 17:31:15;;;;;;;20.75;8.00;;;11.80;99.90;;;;;;5023825;28;20049;-79
2021/10/31 17:33:44;;;;;;;15.55;2.60;;;11.80;99.90;;;;;;5022933;28;20045;-85
2021/10/31 17:36:12;;;;;;;16.00;3.63;;;11.80;99.90;;;;;;4996255;28;20045;-78
2021/10/31 17:38:38;;;;;;;19.83;4.18;;;11.80;99.90;;;;;;5027594;28;20045;-79
2021/10/31 17:41:09;;;;;;;16.05;4.70;;;11.80;99.90;;;;;;5025800;28;20053;-85
2021/10/31 17:43:36;;;;;;;15.80;2.70;;;11.80;99.90;;;;;;5008077;28;20057;-80
2021/10/31 17:46:05;;;;;;;19.65;3.55;;;11.90;99.90;;;;;;5024660;28;20049;-80
2021/10/31 17:48:32;;;;;;;32.15;13.32;;;11.90;99.90;;;;;;5027773;28;20129;-80
2021/10/31 17:50:58;;;;;;;12.88;4.85;;;11.90;99.90;;;;;;5023642;28;20042;-80
2021/10/31 17:53:26;;;;;;;18.27;3.00;;;11.90;99.90;;;;;;5023567;28;20057;-79
2021/10/31 17:55:59;;;;;;;17.85;3.67;;;12.00;99.90;;;;;;5027134;28;20053;-86
2021/10/31 17:58:26;;;;;;;13.80;2.83;;;12.00;99.90;;;;;;5008526;28;20086;-80
2021/10/31 18:00:53;;;;;;;24.58;3.22;;;12.00;99.90;;;;;;5029532;28;20107;-81
2021/10/31 18:03:24;;;;;;;15.27;2.35;;;12.10;99.90;;;;;;5027398;28;20687;-89
2021/10/31 18:05:52;;;;;;;17.20;2.75;;;12.10;99.90;;;;;;4985169;28;20719;-79
2021/10/31 18:08:19;;;;;;;18.95;4.18;;;12.10;99.90;;;;;;5023274;28;20741;-78
2021/10/31 18:10:50;;;;;;;18.65;3.13;;;12.10;99.90;;;;;;5022279;28;20097;-79
2021/10/31 18:13:17;;;;;;;18.83;3.28;;;12.10;99.90;;;;;;5026067;28;20053;-79
2021/10/31 18:15:44;;;;;;;25.00;5.63;;;12.10;99.90;;;;;;5027610;28;20505;-79
2021/10/31 18:18:12;;;;;;;17.85;3.53;;;12.20;99.90;;;;;;5012053;28;20552;-79
2021/10/31 18:20:39;;;;;;;25.00;3.22;;;12.10;99.90;;;;;;5027278;28;20061;-80
2021/10/31 18:23:17;;;;;;;20.67;4.53;;;12.10;99.90;;;;;;5025991;28;20104;-84
2021/10/31 18:25:44;;;;;;;14.98;2.53;;;12.10;99.90;;;;;;4979929;28;20045;-79
2021/10/31 18:28:17;;;;;;;13.43;2.47;;;12.00;99.90;;;;;;5023900;28;20046;-78
2021/10/31 18:30:44;;;;;;;1133.82;744.78;;;12.00;99.90;;;;;;5024641;28;20041;-80
2021/10/31 18:33:11;;;;;;;32.10;11.35;;;11.90;99.90;;;;;;5028409;28;20497;-80
2021/10/31 18:35:38;;;;;;;15.32;3.30;;;11.90;99.90;;;;;;5024989;28;20226;-80
2021/10/31 18:38:05;;;;;;;8.63;2.20;;;11.90;99.90;;;;;;5025984;28;20111;-80
2021/10/31 18:40:33;;;;;;;10.63;2.08;;;11.80;99.90;;;;;;5025561;28;20084;-78
2021/10/31 18:43:00;;;;;;;15.73;2.50;;;11.80;99.90;;;;;;5022918;28;20053;-80
2021/10/31 18:45:28;;;;;;;11.57;2.08;;;11.80;99.90;;;;;;5027191;28;20050;-79
2021/10/31 18:47:55;;;;;;;12.68;2.13;;;11.70;99.90;;;;;;5023386;28;20053;-80
2021/10/31 18:50:23;;;;;;;11.65;2.28;;;11.70;99.90;;;;;;5024302;28;20596;-80
2021/10/31 18:52:53;;;;;;;15.88;2.63;;;11.70;99.90;;;;;;5017587;28;20049;-81
2021/10/31 18:55:21;;;;;;;13.60;2.03;;;11.80;99.90;;;;;;5026562;28;20119;-81
2021/10/31 18:57:58;;;;;;;14.10;2.35;;;11.80;99.90;;;;;;5026037;28;20045;-84
2021/10/31 19:00:27;;;;;;;12.25;2.15;;;11.80;99.90;;;;;;5005728;28;21597;-80
2021/10/31 19:02:56;;;;;;;9.15;1.77;;;11.80;99.90;;;;;;5021481;28;20053;-80
2021/10/31 19:05:23;;;;;;;13.70;2.47;;;11.90;99.90;;;;;;5026046;28;20045;-80
2021/10/31 19:07:50;;;;;;;13.18;1.70;;;11.90;99.90;;;;;;5012223;28;20263;-80
2021/10/31 19:10:20;;;;;;;12.27;2.17;;;12.00;99.90;;;;;;5025791;28;20418;-79
2021/10/31 19:12:48;;;;;;;10.05;1.70;;;12.00;99.90;;;;;;5018631;28;20045;-80
2021/10/31 19:15:15;;;;;;;8.40;1.60;;;12.00;99.90;;;;;;5012336;28;20564;-80
2021/10/31 19:17:43;;;;;;;10.05;1.50;;;12.10;99.90;;;;;;5025833;28;20119;-80
2021/10/31 19:20:13;;;;;;;10.52;1.90;;;12.10;99.90;;;;;;5021939;28;20161;-80
2021/10/31 19:22:41;;;;;;;7.15;1.23;;;12.10;99.90;;;;;;5023742;28;20521;-80
2021/10/31 19:25:09;;;;;;;3.05;0.68;;;12.10;99.90;;;;;;5021947;28;20041;-81
2021/10/31 19:27:36;;;;;;;4.00;0.60;;;12.00;99.90;;;;;;5022894;28;20569;-80
2021/10/31 19:30:07;;;;;;;4.95;0.82;;;11.90;99.90;;;;;;5020222;28;20816;-85
2021/10/31 19:32:36;;;;;;;4.32;0.95;;;11.80;99.90;;;;;;5024378;28;20514;-80
2021/10/31 19:35:03;;;;;;;5.68;0.82;;;11.60;99.90;;;;;;5022534;28;20124;-79
2021/10/31 19:37:31;;;;;;;4.45;0.85;;;11.40;99.90;;;;;;5021658;28;20046;-79
2021/10/31 19:40:00;;;;;;;4.47;0.70;;;11.30;99.90;;;;;;5024191;28;20057;-80
2021/10/31 19:42:27;;;;;;;3.95;0.88;;;11.20;99.90;;;;;;5024332;28;20139;-81
2021/10/31 19:44:55;;;;;;;6.72;1.08;;;11.00;99.90;;;;;;5019687;28;20060;-79
2021/10/31 19:47:23;;;;;;;2.85;0.70;;;10.90;99.90;;;;;;5017969;28;20077;-79
2021/10/31 19:49:50;;;;;;;3.55;0.65;;;10.80;99.90;;;;;;5023445;28;20042;-79
2021/10/31 19:52:17;;;;;;;9.13;1.27;;;10.80;99.90;;;;;;5018708;28;20046;-81
2021/10/31 19:54:44;;;;;;;10.15;1.92;;;10.70;99.90;;;;;;5023722;28;20128;-80
2021/10/31 19:57:11;;;;;;;11.70;1.00;;;10.70;99.90;;;;;;4998482;28;20057;-80
2021/10/31 19:59:38;;;;;;;9.65;1.77;;;10.60;99.90;;;;;;5009172;28;20124;-81
2021/10/31 20:02:05;;;;;;;15.27;1.95;;;10.60;99.90;;;;;;5018318;28;20103;-80
2021/10/31 20:04:32;;;;;;;9.10;1.30;;;10.60;99.90;;;;;;5011728;28;20046;-79
2021/10/31 20:07:03;;;;;;;11.45;1.83;;;10.60;99.90;;;;;;5008057;28;20092;-86